Hauptseite
METAR-TAF:

METAR-TAF

Flughäfen :

Flughafen Melilla

Melilla, Spanien

Breite: 35-17N, Länge: 002-57W, Höhe: 47 m

Beobachtung

Neuester Wetterbericht von vor 43 Minuten, um 06:30 UTC
Windstille
Temperatur 11°C
Luftfeuchtigkeit 82%
Luftdruck 1020 hPa
Sichtweite 10 km oder mehr
Leicht bewölkt in der Höhe von 2000 ft

METAR: GEML 240630Z 00000KT 9999 FEW020 11/08 Q1020

Zeit: 08:13 (07:13 UTC)

Prognose

Neuester Wetterbericht von vor 5 Stunden und 13 Minuten, um 02:00 UTC
Gültige Prognose vom 24 um 03 UTC bis 25 um 03 UTC
Wind 4 kt aus Süd/Südwest
Sichtweite 10 km oder mehr
Leicht bewölkt in der Höhe von 2000 ft

TAF: GEML 240200Z 2403/2503 21004KT 9999 FEW020 TX19/2415Z TN09/2406Z

Wetterbeobachtungen und Prognosen von mehr als 4000 Flughäfen (METAR und TAF Bericht).

Die verfügbaren Stationen werden durch gelbe und rote Markierungen auf der Karte dargestellt.

Führen Sie die Maus auf sie, um den Namen der Station zu sehen.

Darauf klicken, um die Beobachtung von Wetterbeobachtungen und Prognosen zu sehen.

Um die Karte zu ändern : klicken Sie auf den grünen Tasten mit einem schwarzen Kreuz Zum Vergrößern, auf den grünen Button mit einem Gedankenstrich zu verkleinern, oder auf die grünen Pfeile für benachbarte Karten.


METAR-TAF: